sensor_id;sensor_type;location;lat;lon;timestamp;P1;durP1;ratioP1;P2;durP2;ratioP2
28007;SDS011;15333;50.010;20.020;2023-06-10T00:01:40;87.85;;;63.95;;
28007;SDS011;15333;50.010;20.020;2023-06-10T00:04:41;88.38;;;64.82;;
28007;SDS011;15333;50.010;20.020;2023-06-10T00:07:42;85.47;;;62.40;;
28007;SDS011;15333;50.010;20.020;2023-06-10T00:10:43;86.28;;;63.28;;
28007;SDS011;15333;50.010;20.020;2023-06-10T00:13:43;82.07;;;60.50;;
28007;SDS011;15333;50.010;20.020;2023-06-10T00:16:44;85.50;;;60.70;;
28007;SDS011;15333;50.010;20.020;2023-06-10T00:19:45;80.90;;;59.67;;
28007;SDS011;15333;50.010;20.020;2023-06-10T00:22:47;70.13;;;51.38;;
28007;SDS011;15333;50.010;20.020;2023-06-10T00:25:49;54.67;;;45.67;;
28007;SDS011;15333;50.010;20.020;2023-06-10T00:28:50;51.97;;;41.80;;
28007;SDS011;15333;50.010;20.020;2023-06-10T00:31:52;43.90;;;37.85;;
28007;SDS011;15333;50.010;20.020;2023-06-10T00:34:58;46.50;;;38.67;;
28007;SDS011;15333;50.010;20.020;2023-06-10T00:37:58;45.10;;;38.03;;
28007;SDS011;15333;50.010;20.020;2023-06-10T00:40:59;46.00;;;36.95;;
28007;SDS011;15333;50.010;20.020;2023-06-10T00:44:00;44.72;;;37.50;;
28007;SDS011;15333;50.010;20.020;2023-06-10T00:47:02;44.10;;;37.17;;
28007;SDS011;15333;50.010;20.020;2023-06-10T00:50:03;44.70;;;39.05;;
28007;SDS011;15333;50.010;20.020;2023-06-10T00:53:06;45.95;;;37.80;;
28007;SDS011;15333;50.010;20.020;2023-06-10T00:56:07;49.30;;;38.97;;
28007;SDS011;15333;50.010;20.020;2023-06-10T00:59:10;47.17;;;38.38;;
28007;SDS011;15333;50.010;20.020;2023-06-10T01:02:10;46.05;;;38.97;;
28007;SDS011;15333;50.010;20.020;2023-06-10T01:05:12;48.40;;;39.97;;
28007;SDS011;15333;50.010;20.020;2023-06-10T01:08:19;50.40;;;39.72;;
28007;SDS011;15333;50.010;20.020;2023-06-10T01:11:36;51.13;;;42.28;;
28007;SDS011;15333;50.010;20.020;2023-06-10T01:14:44;54.90;;;42.88;;
28007;SDS011;15333;50.010;20.020;2023-06-10T01:17:59;53.70;;;44.13;;
28007;SDS011;15333;50.010;20.020;2023-06-10T01:21:04;51.33;;;44.30;;
28007;SDS011;15333;50.010;20.020;2023-06-10T01:24:06;54.38;;;43.78;;
28007;SDS011;15333;50.010;20.020;2023-06-10T01:27:13;56.42;;;45.10;;
28007;SDS011;15333;50.010;20.020;2023-06-10T01:30:20;52.38;;;43.83;;
28007;SDS011;15333;50.010;20.020;2023-06-10T01:33:31;56.83;;;45.75;;
28007;SDS011;15333;50.010;20.020;2023-06-10T01:36:37;53.28;;;44.75;;
28007;SDS011;15333;50.010;20.020;2023-06-10T01:39:41;56.67;;;45.70;;
28007;SDS011;15333;50.010;20.020;2023-06-10T01:42:44;58.10;;;46.72;;
28007;SDS011;15333;50.010;20.020;2023-06-10T01:45:46;57.05;;;45.58;;
28007;SDS011;15333;50.010;20.020;2023-06-10T01:48:48;61.25;;;47.33;;
28007;SDS011;15333;50.010;20.020;2023-06-10T01:51:50;61.35;;;48.10;;
28007;SDS011;15333;50.010;20.020;2023-06-10T01:54:51;57.47;;;46.10;;
28007;SDS011;15333;50.010;20.020;2023-06-10T01:57:51;58.78;;;46.28;;
28007;SDS011;15333;50.010;20.020;2023-06-10T02:00:52;54.95;;;46.78;;
28007;SDS011;15333;50.010;20.020;2023-06-10T02:03:53;55.83;;;45.03;;
28007;SDS011;15333;50.010;20.020;2023-06-10T02:06:54;64.15;;;48.53;;
28007;SDS011;15333;50.010;20.020;2023-06-10T02:09:56;58.15;;;47.80;;
28007;SDS011;15333;50.010;20.020;2023-06-10T02:12:57;68.00;;;48.05;;
28007;SDS011;15333;50.010;20.020;2023-06-10T02:15:58;63.67;;;46.72;;
28007;SDS011;15333;50.010;20.020;2023-06-10T02:19:03;55.65;;;44.85;;
28007;SDS011;15333;50.010;20.020;2023-06-10T02:22:06;51.58;;;43.20;;
28007;SDS011;15333;50.010;20.020;2023-06-10T02:25:08;54.88;;;42.85;;
28007;SDS011;15333;50.010;20.020;2023-06-10T02:28:09;55.28;;;41.83;;
28007;SDS011;15333;50.010;20.020;2023-06-10T02:31:10;51.83;;;42.10;;
28007;SDS011;15333;50.010;20.020;2023-06-10T02:34:11;51.03;;;40.78;;
28007;SDS011;15333;50.010;20.020;2023-06-10T02:37:12;52.75;;;42.17;;
28007;SDS011;15333;50.010;20.020;2023-06-10T02:40:13;46.78;;;38.60;;
28007;SDS011;15333;50.010;20.020;2023-06-10T02:43:14;60.95;;;40.03;;
28007;SDS011;15333;50.010;20.020;2023-06-10T02:46:16;51.47;;;39.05;;
28007;SDS011;15333;50.010;20.020;2023-06-10T02:49:19;55.45;;;42.90;;
28007;SDS011;15333;50.010;20.020;2023-06-10T02:52:20;54.72;;;43.20;;
28007;SDS011;15333;50.010;20.020;2023-06-10T02:55:22;58.45;;;47.45;;
28007;SDS011;15333;50.010;20.020;2023-06-10T02:58:29;56.63;;;47.58;;
28007;SDS011;15333;50.010;20.020;2023-06-10T03:01:32;57.03;;;45.92;;
28007;SDS011;15333;50.010;20.020;2023-06-10T03:04:38;59.25;;;46.50;;
28007;SDS011;15333;50.010;20.020;2023-06-10T03:07:45;49.58;;;41.10;;
28007;SDS011;15333;50.010;20.020;2023-06-10T03:10:46;50.08;;;40.00;;
28007;SDS011;15333;50.010;20.020;2023-06-10T03:13:51;47.88;;;38.78;;
28007;SDS011;15333;50.010;20.020;2023-06-10T03:16:55;47.17;;;37.05;;
28007;SDS011;15333;50.010;20.020;2023-06-10T03:19:58;44.42;;;36.20;;
28007;SDS011;15333;50.010;20.020;2023-06-10T03:22:59;40.17;;;34.42;;
28007;SDS011;15333;50.010;20.020;2023-06-10T03:26:01;44.95;;;36.00;;
28007;SDS011;15333;50.010;20.020;2023-06-10T03:29:04;46.28;;;36.17;;
28007;SDS011;15333;50.010;20.020;2023-06-10T03:32:06;40.40;;;34.40;;
28007;SDS011;15333;50.010;20.020;2023-06-10T03:35:08;47.70;;;35.67;;
28007;SDS011;15333;50.010;20.020;2023-06-10T03:38:11;44.03;;;35.50;;
28007;SDS011;15333;50.010;20.020;2023-06-10T03:41:12;39.25;;;33.65;;
28007;SDS011;15333;50.010;20.020;2023-06-10T03:44:16;46.13;;;34.63;;
28007;SDS011;15333;50.010;20.020;2023-06-10T03:47:17;47.13;;;35.55;;
28007;SDS011;15333;50.010;20.020;2023-06-10T03:50:19;46.88;;;34.47;;
28007;SDS011;15333;50.010;20.020;2023-06-10T03:53:20;47.33;;;35.22;;
28007;SDS011;15333;50.010;20.020;2023-06-10T03:56:22;42.95;;;34.75;;
28007;SDS011;15333;50.010;20.020;2023-06-10T03:59:23;47.72;;;35.38;;
28007;SDS011;15333;50.010;20.020;2023-06-10T04:02:24;42.95;;;33.40;;
28007;SDS011;15333;50.010;20.020;2023-06-10T04:05:25;36.42;;;31.55;;
28007;SDS011;15333;50.010;20.020;2023-06-10T04:08:27;39.15;;;32.17;;
28007;SDS011;15333;50.010;20.020;2023-06-10T04:11:28;40.70;;;31.40;;
28007;SDS011;15333;50.010;20.020;2023-06-10T04:14:31;41.50;;;32.33;;
28007;SDS011;15333;50.010;20.020;2023-06-10T04:17:33;38.10;;;32.05;;
28007;SDS011;15333;50.010;20.020;2023-06-10T04:20:34;42.13;;;32.97;;
28007;SDS011;15333;50.010;20.020;2023-06-10T04:23:35;39.20;;;33.58;;
28007;SDS011;15333;50.010;20.020;2023-06-10T04:26:38;43.67;;;33.40;;
28007;SDS011;15333;50.010;20.020;2023-06-10T04:29:39;41.40;;;33.20;;
28007;SDS011;15333;50.010;20.020;2023-06-10T04:32:41;44.42;;;33.30;;
28007;SDS011;15333;50.010;20.020;2023-06-10T04:35:47;42.20;;;33.97;;
28007;SDS011;15333;50.010;20.020;2023-06-10T04:38:49;45.85;;;33.20;;
28007;SDS011;15333;50.010;20.020;2023-06-10T04:41:52;42.03;;;32.65;;
28007;SDS011;15333;50.010;20.020;2023-06-10T04:44:54;39.55;;;31.33;;
28007;SDS011;15333;50.010;20.020;2023-06-10T04:47:54;41.00;;;31.65;;
28007;SDS011;15333;50.010;20.020;2023-06-10T04:50:57;39.28;;;31.27;;
28007;SDS011;15333;50.010;20.020;2023-06-10T04:53:59;37.67;;;31.10;;
28007;SDS011;15333;50.010;20.020;2023-06-10T04:57:04;38.45;;;29.60;;
28007;SDS011;15333;50.010;20.020;2023-06-10T05:00:08;45.75;;;30.02;;
28007;SDS011;15333;50.010;20.020;2023-06-10T05:03:09;32.75;;;28.30;;
28007;SDS011;15333;50.010;20.020;2023-06-10T05:06:10;32.95;;;27.25;;
28007;SDS011;15333;50.010;20.020;2023-06-10T05:09:11;32.38;;;25.77;;
28007;SDS011;15333;50.010;20.020;2023-06-10T05:12:12;39.13;;;25.95;;
28007;SDS011;15333;50.010;20.020;2023-06-10T05:15:13;31.48;;;25.58;;
28007;SDS011;15333;50.010;20.020;2023-06-10T05:18:14;31.38;;;25.67;;
28007;SDS011;15333;50.010;20.020;2023-06-10T05:21:15;32.10;;;24.85;;
28007;SDS011;15333;50.010;20.020;2023-06-10T05:24:16;31.13;;;21.48;;
28007;SDS011;15333;50.010;20.020;2023-06-10T05:27:17;25.50;;;20.65;;
28007;SDS011;15333;50.010;20.020;2023-06-10T05:30:17;26.95;;;21.70;;
28007;SDS011;15333;50.010;20.020;2023-06-10T05:33:19;25.83;;;20.90;;
28007;SDS011;15333;50.010;20.020;2023-06-10T05:36:20;27.35;;;20.67;;
28007;SDS011;15333;50.010;20.020;2023-06-10T05:39:21;25.77;;;19.52;;
28007;SDS011;15333;50.010;20.020;2023-06-10T05:42:22;26.33;;;19.55;;
28007;SDS011;15333;50.010;20.020;2023-06-10T05:45:23;24.92;;;18.80;;
28007;SDS011;15333;50.010;20.020;2023-06-10T05:48:24;27.33;;;18.75;;
28007;SDS011;15333;50.010;20.020;2023-06-10T05:51:25;22.15;;;18.55;;
28007;SDS011;15333;50.010;20.020;2023-06-10T05:54:26;21.85;;;16.58;;
28007;SDS011;15333;50.010;20.020;2023-06-10T05:57:27;22.77;;;16.63;;
28007;SDS011;15333;50.010;20.020;2023-06-10T06:00:28;23.02;;;17.05;;
28007;SDS011;15333;50.010;20.020;2023-06-10T06:03:29;22.35;;;17.13;;
28007;SDS011;15333;50.010;20.020;2023-06-10T06:06:30;19.33;;;15.57;;
28007;SDS011;15333;50.010;20.020;2023-06-10T06:09:31;21.75;;;14.90;;
28007;SDS011;15333;50.010;20.020;2023-06-10T06:12:32;18.35;;;14.82;;
28007;SDS011;15333;50.010;20.020;2023-06-10T06:15:32;22.70;;;15.18;;
28007;SDS011;15333;50.010;20.020;2023-06-10T06:18:33;20.10;;;14.90;;
28007;SDS011;15333;50.010;20.020;2023-06-10T06:21:35;19.23;;;14.57;;
28007;SDS011;15333;50.010;20.020;2023-06-10T06:24:36;16.40;;;13.05;;
28007;SDS011;15333;50.010;20.020;2023-06-10T06:27:37;16.55;;;14.13;;
28007;SDS011;15333;50.010;20.020;2023-06-10T06:30:38;17.30;;;12.77;;
28007;SDS011;15333;50.010;20.020;2023-06-10T06:33:39;16.67;;;13.02;;
28007;SDS011;15333;50.010;20.020;2023-06-10T06:36:40;15.32;;;12.98;;
28007;SDS011;15333;50.010;20.020;2023-06-10T06:39:41;14.82;;;12.07;;
28007;SDS011;15333;50.010;20.020;2023-06-10T06:42:42;16.33;;;12.13;;
28007;SDS011;15333;50.010;20.020;2023-06-10T06:45:50;14.95;;;12.32;;
28007;SDS011;15333;50.010;20.020;2023-06-10T06:48:51;15.98;;;12.55;;
28007;SDS011;15333;50.010;20.020;2023-06-10T06:51:52;14.43;;;12.80;;
28007;SDS011;15333;50.010;20.020;2023-06-10T06:54:53;15.73;;;13.05;;
28007;SDS011;15333;50.010;20.020;2023-06-10T06:57:54;17.95;;;13.73;;
28007;SDS011;15333;50.010;20.020;2023-06-10T07:00:55;16.50;;;13.77;;
28007;SDS011;15333;50.010;20.020;2023-06-10T07:03:57;14.52;;;11.95;;
28007;SDS011;15333;50.010;20.020;2023-06-10T07:06:58;14.75;;;12.80;;
28007;SDS011;15333;50.010;20.020;2023-06-10T07:09:59;17.70;;;12.65;;
28007;SDS011;15333;50.010;20.020;2023-06-10T07:13:00;17.55;;;12.95;;
28007;SDS011;15333;50.010;20.020;2023-06-10T07:16:01;16.65;;;13.13;;
28007;SDS011;15333;50.010;20.020;2023-06-10T07:19:02;15.02;;;12.27;;
28007;SDS011;15333;50.010;20.020;2023-06-10T07:22:03;15.93;;;12.82;;
28007;SDS011;15333;50.010;20.020;2023-06-10T07:25:04;14.10;;;12.07;;
28007;SDS011;15333;50.010;20.020;2023-06-10T07:28:06;16.73;;;13.45;;
28007;SDS011;15333;50.010;20.020;2023-06-10T07:31:07;17.45;;;12.75;;
28007;SDS011;15333;50.010;20.020;2023-06-10T07:34:09;18.08;;;12.77;;
28007;SDS011;15333;50.010;20.020;2023-06-10T07:37:09;14.50;;;12.70;;
28007;SDS011;15333;50.010;20.020;2023-06-10T07:40:11;13.43;;;11.98;;
28007;SDS011;15333;50.010;20.020;2023-06-10T07:43:12;13.25;;;11.85;;
28007;SDS011;15333;50.010;20.020;2023-06-10T07:46:13;13.98;;;11.60;;
28007;SDS011;15333;50.010;20.020;2023-06-10T07:49:14;14.70;;;11.70;;
28007;SDS011;15333;50.010;20.020;2023-06-10T07:52:15;14.05;;;11.05;;
28007;SDS011;15333;50.010;20.020;2023-06-10T07:55:16;15.88;;;11.50;;
28007;SDS011;15333;50.010;20.020;2023-06-10T07:58:17;14.93;;;11.73;;
28007;SDS011;15333;50.010;20.020;2023-06-10T08:01:18;12.30;;;11.02;;
28007;SDS011;15333;50.010;20.020;2023-06-10T08:04:19;13.65;;;10.85;;
28007;SDS011;15333;50.010;20.020;2023-06-10T08:07:20;14.10;;;11.35;;
28007;SDS011;15333;50.010;20.020;2023-06-10T08:10:21;12.82;;;11.05;;
28007;SDS011;15333;50.010;20.020;2023-06-10T08:13:21;13.98;;;11.43;;
28007;SDS011;15333;50.010;20.020;2023-06-10T08:16:23;11.57;;;9.85;;
28007;SDS011;15333;50.010;20.020;2023-06-10T08:19:23;13.20;;;11.10;;
28007;SDS011;15333;50.010;20.020;2023-06-10T08:22:25;14.23;;;10.95;;
28007;SDS011;15333;50.010;20.020;2023-06-10T08:25:25;15.65;;;11.00;;
28007;SDS011;15333;50.010;20.020;2023-06-10T08:28:26;12.63;;;11.32;;
28007;SDS011;15333;50.010;20.020;2023-06-10T08:31:27;12.00;;;10.52;;
28007;SDS011;15333;50.010;20.020;2023-06-10T08:34:28;12.77;;;11.38;;
28007;SDS011;15333;50.010;20.020;2023-06-10T08:37:29;14.88;;;10.88;;
28007;SDS011;15333;50.010;20.020;2023-06-10T08:40:30;13.35;;;10.85;;
28007;SDS011;15333;50.010;20.020;2023-06-10T08:50:05;12.63;;;10.98;;
28007;SDS011;15333;50.010;20.020;2023-06-10T08:53:07;13.32;;;11.40;;
28007;SDS011;15333;50.010;20.020;2023-06-10T08:56:08;12.63;;;10.43;;
28007;SDS011;15333;50.010;20.020;2023-06-10T08:59:10;14.68;;;11.48;;
28007;SDS011;15333;50.010;20.020;2023-06-10T09:02:12;15.38;;;11.02;;
28007;SDS011;15333;50.010;20.020;2023-06-10T09:05:15;13.80;;;9.95;;
28007;SDS011;15333;50.010;20.020;2023-06-10T09:08:16;11.23;;;9.15;;
28007;SDS011;15333;50.010;20.020;2023-06-10T09:11:19;10.25;;;8.77;;
28007;SDS011;15333;50.010;20.020;2023-06-10T09:14:20;10.23;;;9.10;;
28007;SDS011;15333;50.010;20.020;2023-06-10T09:17:21;9.88;;;7.93;;
28007;SDS011;15333;50.010;20.020;2023-06-10T09:20:23;10.30;;;9.00;;
28007;SDS011;15333;50.010;20.020;2023-06-10T09:23:24;10.55;;;9.45;;
28007;SDS011;15333;50.010;20.020;2023-06-10T09:26:28;15.20;;;9.93;;
28007;SDS011;15333;50.010;20.020;2023-06-10T09:29:30;11.15;;;9.43;;
28007;SDS011;15333;50.010;20.020;2023-06-10T09:32:31;12.90;;;9.00;;
28007;SDS011;15333;50.010;20.020;2023-06-10T09:35:48;10.13;;;8.80;;
28007;SDS011;15333;50.010;20.020;2023-06-10T09:38:50;9.63;;;8.05;;
28007;SDS011;15333;50.010;20.020;2023-06-10T09:41:54;10.07;;;8.23;;
28007;SDS011;15333;50.010;20.020;2023-06-10T09:44:56;11.48;;;8.50;;
28007;SDS011;15333;50.010;20.020;2023-06-10T09:47:57;11.10;;;10.00;;
28007;SDS011;15333;50.010;20.020;2023-06-10T09:50:57;14.75;;;9.82;;
28007;SDS011;15333;50.010;20.020;2023-06-10T09:53:59;13.50;;;10.38;;
28007;SDS011;15333;50.010;20.020;2023-06-10T09:57:06;10.75;;;9.60;;
28007;SDS011;15333;50.010;20.020;2023-06-10T10:00:10;11.48;;;10.15;;
28007;SDS011;15333;50.010;20.020;2023-06-10T10:03:12;12.20;;;10.45;;
28007;SDS011;15333;50.010;20.020;2023-06-10T10:06:23;17.27;;;10.68;;
28007;SDS011;15333;50.010;20.020;2023-06-10T10:09:25;13.13;;;8.98;;
28007;SDS011;15333;50.010;20.020;2023-06-10T10:12:26;12.63;;;9.65;;
28007;SDS011;15333;50.010;20.020;2023-06-10T10:15:28;10.55;;;8.05;;
28007;SDS011;15333;50.010;20.020;2023-06-10T10:18:32;12.10;;;8.55;;
28007;SDS011;15333;50.010;20.020;2023-06-10T10:21:38;13.15;;;7.55;;
28007;SDS011;15333;50.010;20.020;2023-06-10T10:24:52;10.90;;;6.90;;
28007;SDS011;15333;50.010;20.020;2023-06-10T10:27:59;12.90;;;7.38;;
28007;SDS011;15333;50.010;20.020;2023-06-10T10:31:08;8.57;;;7.38;;
28007;SDS011;15333;50.010;20.020;2023-06-10T10:34:13;9.52;;;7.68;;
28007;SDS011;15333;50.010;20.020;2023-06-10T10:37:19;10.68;;;8.52;;
28007;SDS011;15333;50.010;20.020;2023-06-10T10:40:21;10.48;;;8.15;;
28007;SDS011;15333;50.010;20.020;2023-06-10T10:43:23;10.23;;;8.20;;
28007;SDS011;15333;50.010;20.020;2023-06-10T10:46:24;10.98;;;9.00;;
28007;SDS011;15333;50.010;20.020;2023-06-10T10:49:25;11.40;;;10.18;;
28007;SDS011;15333;50.010;20.020;2023-06-10T10:52:27;11.93;;;9.80;;
28007;SDS011;15333;50.010;20.020;2023-06-10T10:55:57;13.57;;;9.30;;
28007;SDS011;15333;50.010;20.020;2023-06-10T10:59:05;12.43;;;9.57;;
28007;SDS011;15333;50.010;20.020;2023-06-10T11:02:07;13.27;;;9.75;;
28007;SDS011;15333;50.010;20.020;2023-06-10T11:05:08;13.15;;;9.73;;
28007;SDS011;15333;50.010;20.020;2023-06-10T11:08:11;13.43;;;10.43;;
28007;SDS011;15333;50.010;20.020;2023-06-10T11:11:24;13.35;;;11.95;;
28007;SDS011;15333;50.010;20.020;2023-06-10T11:14:28;19.73;;;13.25;;
28007;SDS011;15333;50.010;20.020;2023-06-10T11:17:35;19.17;;;13.57;;
28007;SDS011;15333;50.010;20.020;2023-06-10T11:23:50;23.23;;;14.43;;
28007;SDS011;15333;50.010;20.020;2023-06-10T11:26:51;24.33;;;13.70;;
28007;SDS011;15333;50.010;20.020;2023-06-10T11:29:58;17.58;;;15.73;;
28007;SDS011;15333;50.010;20.020;2023-06-10T11:33:00;16.38;;;14.25;;
28007;SDS011;15333;50.010;20.020;2023-06-10T11:36:01;16.52;;;14.18;;
28007;SDS011;15333;50.010;20.020;2023-06-10T11:39:08;14.57;;;12.93;;
28007;SDS011;15333;50.010;20.020;2023-06-10T11:42:10;15.98;;;12.38;;
28007;SDS011;15333;50.010;20.020;2023-06-10T11:45:14;13.40;;;10.77;;
28007;SDS011;15333;50.010;20.020;2023-06-10T11:48:16;14.43;;;9.50;;
28007;SDS011;15333;50.010;20.020;2023-06-10T11:51:18;9.85;;;8.55;;
28007;SDS011;15333;50.010;20.020;2023-06-10T11:54:19;12.00;;;8.25;;
28007;SDS011;15333;50.010;20.020;2023-06-10T11:57:20;10.10;;;8.30;;
28007;SDS011;15333;50.010;20.020;2023-06-10T12:00:21;9.15;;;8.27;;
28007;SDS011;15333;50.010;20.020;2023-06-10T12:03:23;8.90;;;7.57;;
28007;SDS011;15333;50.010;20.020;2023-06-10T12:06:37;10.77;;;7.65;;
28007;SDS011;15333;50.010;20.020;2023-06-10T12:09:42;10.55;;;7.32;;
28007;SDS011;15333;50.010;20.020;2023-06-10T12:12:43;8.15;;;7.25;;
28007;SDS011;15333;50.010;20.020;2023-06-10T12:15:44;9.05;;;6.20;;
28007;SDS011;15333;50.010;20.020;2023-06-10T12:18:46;8.98;;;6.45;;
28007;SDS011;15333;50.010;20.020;2023-06-10T12:21:48;6.65;;;5.95;;
28007;SDS011;15333;50.010;20.020;2023-06-10T12:24:58;6.18;;;5.57;;
28007;SDS011;15333;50.010;20.020;2023-06-10T12:28:04;8.05;;;5.78;;
28007;SDS011;15333;50.010;20.020;2023-06-10T12:31:06;7.90;;;6.22;;
28007;SDS011;15333;50.010;20.020;2023-06-10T12:34:08;8.93;;;6.30;;
28007;SDS011;15333;50.010;20.020;2023-06-10T12:37:10;7.85;;;6.10;;
28007;SDS011;15333;50.010;20.020;2023-06-10T12:40:16;7.97;;;6.25;;
28007;SDS011;15333;50.010;20.020;2023-06-10T12:43:20;6.05;;;4.72;;
28007;SDS011;15333;50.010;20.020;2023-06-10T12:46:22;5.38;;;4.85;;
28007;SDS011;15333;50.010;20.020;2023-06-10T12:49:23;8.15;;;5.18;;
28007;SDS011;15333;50.010;20.020;2023-06-10T12:52:24;6.35;;;5.20;;
28007;SDS011;15333;50.010;20.020;2023-06-10T12:55:25;8.45;;;5.30;;
28007;SDS011;15333;50.010;20.020;2023-06-10T12:58:27;6.88;;;5.40;;
28007;SDS011;15333;50.010;20.020;2023-06-10T13:01:28;9.32;;;5.82;;
28007;SDS011;15333;50.010;20.020;2023-06-10T13:04:32;7.38;;;5.60;;
28007;SDS011;15333;50.010;20.020;2023-06-10T13:07:32;7.38;;;4.97;;
28007;SDS011;15333;50.010;20.020;2023-06-10T13:10:33;8.27;;;5.35;;
28007;SDS011;15333;50.010;20.020;2023-06-10T13:13:36;8.35;;;5.20;;
28007;SDS011;15333;50.010;20.020;2023-06-10T13:16:38;9.43;;;5.55;;
28007;SDS011;15333;50.010;20.020;2023-06-10T13:19:38;7.03;;;6.05;;
28007;SDS011;15333;50.010;20.020;2023-06-10T13:22:40;7.20;;;6.50;;
28007;SDS011;15333;50.010;20.020;2023-06-10T13:25:41;5.40;;;4.90;;
28007;SDS011;15333;50.010;20.020;2023-06-10T13:28:45;6.45;;;5.63;;
28007;SDS011;15333;50.010;20.020;2023-06-10T13:31:46;6.57;;;5.88;;
28007;SDS011;15333;50.010;20.020;2023-06-10T13:34:47;5.80;;;5.20;;
28007;SDS011;15333;50.010;20.020;2023-06-10T13:37:49;6.63;;;4.60;;
28007;SDS011;15333;50.010;20.020;2023-06-10T13:40:51;4.55;;;3.88;;
28007;SDS011;15333;50.010;20.020;2023-06-10T13:43:51;4.43;;;3.25;;
28007;SDS011;15333;50.010;20.020;2023-06-10T13:46:52;5.50;;;4.00;;
28007;SDS011;15333;50.010;20.020;2023-06-10T13:49:53;7.25;;;3.70;;
28007;SDS011;15333;50.010;20.020;2023-06-10T13:52:54;8.23;;;4.15;;
28007;SDS011;15333;50.010;20.020;2023-06-10T13:55:55;5.95;;;3.95;;
28007;SDS011;15333;50.010;20.020;2023-06-10T13:58:56;4.38;;;3.97;;
28007;SDS011;15333;50.010;20.020;2023-06-10T14:01:57;4.30;;;3.90;;
28007;SDS011;15333;50.010;20.020;2023-06-10T14:04:58;5.47;;;3.45;;
28007;SDS011;15333;50.010;20.020;2023-06-10T14:07:59;5.10;;;3.63;;
28007;SDS011;15333;50.010;20.020;2023-06-10T14:11:01;4.70;;;3.55;;
28007;SDS011;15333;50.010;20.020;2023-06-10T14:14:02;8.60;;;4.15;;
28007;SDS011;15333;50.010;20.020;2023-06-10T14:17:03;3.60;;;3.28;;
28007;SDS011;15333;50.010;20.020;2023-06-10T14:20:05;4.95;;;3.88;;
28007;SDS011;15333;50.010;20.020;2023-06-10T14:23:08;4.80;;;4.18;;
28007;SDS011;15333;50.010;20.020;2023-06-10T14:26:09;6.50;;;4.13;;
28007;SDS011;15333;50.010;20.020;2023-06-10T14:29:10;4.07;;;3.65;;
28007;SDS011;15333;50.010;20.020;2023-06-10T14:32:14;5.15;;;3.63;;
28007;SDS011;15333;50.010;20.020;2023-06-10T14:35:15;5.70;;;4.80;;
28007;SDS011;15333;50.010;20.020;2023-06-10T14:38:16;4.80;;;4.40;;
28007;SDS011;15333;50.010;20.020;2023-06-10T14:41:17;5.32;;;4.55;;
28007;SDS011;15333;50.010;20.020;2023-06-10T14:44:18;6.53;;;4.50;;
28007;SDS011;15333;50.010;20.020;2023-06-10T14:47:19;5.75;;;4.10;;
28007;SDS011;15333;50.010;20.020;2023-06-10T14:50:20;7.80;;;4.60;;
28007;SDS011;15333;50.010;20.020;2023-06-10T14:53:21;4.88;;;4.13;;
28007;SDS011;15333;50.010;20.020;2023-06-10T14:56:22;5.13;;;4.63;;
28007;SDS011;15333;50.010;20.020;2023-06-10T14:59:24;6.47;;;4.47;;
28007;SDS011;15333;50.010;20.020;2023-06-10T15:02:24;5.03;;;4.40;;
28007;SDS011;15333;50.010;20.020;2023-06-10T15:05:27;5.22;;;3.70;;
28007;SDS011;15333;50.010;20.020;2023-06-10T15:08:27;5.07;;;4.40;;
28007;SDS011;15333;50.010;20.020;2023-06-10T15:11:29;5.65;;;4.00;;
28007;SDS011;15333;50.010;20.020;2023-06-10T15:14:29;4.93;;;4.40;;
28007;SDS011;15333;50.010;20.020;2023-06-10T15:17:31;5.70;;;4.25;;
28007;SDS011;15333;50.010;20.020;2023-06-10T15:20:32;4.75;;;4.30;;
28007;SDS011;15333;50.010;20.020;2023-06-10T15:23:33;6.82;;;4.55;;
28007;SDS011;15333;50.010;20.020;2023-06-10T15:26:34;4.97;;;4.20;;
28007;SDS011;15333;50.010;20.020;2023-06-10T15:29:36;4.88;;;4.38;;
28007;SDS011;15333;50.010;20.020;2023-06-10T15:32:37;4.88;;;4.32;;
28007;SDS011;15333;50.010;20.020;2023-06-10T15:35:38;4.78;;;4.38;;
28007;SDS011;15333;50.010;20.020;2023-06-10T15:38:39;4.40;;;3.97;;
28007;SDS011;15333;50.010;20.020;2023-06-10T15:41:40;5.28;;;3.63;;
28007;SDS011;15333;50.010;20.020;2023-06-10T15:44:41;5.78;;;4.32;;
28007;SDS011;15333;50.010;20.020;2023-06-10T15:47:42;7.32;;;5.68;;
28007;SDS011;15333;50.010;20.020;2023-06-10T15:50:43;5.72;;;4.80;;
28007;SDS011;15333;50.010;20.020;2023-06-10T15:53:45;7.32;;;4.63;;
28007;SDS011;15333;50.010;20.020;2023-06-10T15:56:47;7.10;;;4.57;;
28007;SDS011;15333;50.010;20.020;2023-06-10T15:59:48;4.65;;;4.15;;
28007;SDS011;15333;50.010;20.020;2023-06-10T16:02:49;6.20;;;4.63;;
28007;SDS011;15333;50.010;20.020;2023-06-10T16:05:50;5.53;;;4.90;;
28007;SDS011;15333;50.010;20.020;2023-06-10T16:08:51;5.43;;;4.90;;
28007;SDS011;15333;50.010;20.020;2023-06-10T16:11:52;5.85;;;5.22;;
28007;SDS011;15333;50.010;20.020;2023-06-10T16:14:53;5.70;;;5.10;;
28007;SDS011;15333;50.010;20.020;2023-06-10T16:17:54;8.50;;;5.22;;
28007;SDS011;15333;50.010;20.020;2023-06-10T16:20:55;5.85;;;5.35;;
28007;SDS011;15333;50.010;20.020;2023-06-10T16:23:56;6.63;;;5.20;;
28007;SDS011;15333;50.010;20.020;2023-06-10T16:26:57;6.30;;;4.70;;
28007;SDS011;15333;50.010;20.020;2023-06-10T16:29:58;7.05;;;5.40;;
28007;SDS011;15333;50.010;20.020;2023-06-10T16:32:59;6.10;;;5.10;;
28007;SDS011;15333;50.010;20.020;2023-06-10T16:36:01;6.57;;;5.53;;
28007;SDS011;15333;50.010;20.020;2023-06-10T16:39:02;7.00;;;4.85;;
28007;SDS011;15333;50.010;20.020;2023-06-10T16:42:03;7.53;;;5.95;;
28007;SDS011;15333;50.010;20.020;2023-06-10T16:45:05;5.78;;;5.10;;
28007;SDS011;15333;50.010;20.020;2023-06-10T16:48:07;6.68;;;5.25;;
28007;SDS011;15333;50.010;20.020;2023-06-10T16:51:07;6.30;;;4.85;;
28007;SDS011;15333;50.010;20.020;2023-06-10T16:54:08;6.88;;;5.22;;
28007;SDS011;15333;50.010;20.020;2023-06-10T16:57:09;7.18;;;5.25;;
28007;SDS011;15333;50.010;20.020;2023-06-10T17:00:11;6.85;;;5.50;;
28007;SDS011;15333;50.010;20.020;2023-06-10T17:03:12;7.50;;;5.25;;
28007;SDS011;15333;50.010;20.020;2023-06-10T17:06:14;6.43;;;5.20;;
28007;SDS011;15333;50.010;20.020;2023-06-10T17:09:15;6.25;;;5.20;;
28007;SDS011;15333;50.010;20.020;2023-06-10T17:12:17;7.90;;;6.45;;
28007;SDS011;15333;50.010;20.020;2023-06-10T17:15:20;6.65;;;6.00;;
28007;SDS011;15333;50.010;20.020;2023-06-10T17:18:21;9.93;;;5.43;;
28007;SDS011;15333;50.010;20.020;2023-06-10T17:21:22;7.30;;;5.68;;
28007;SDS011;15333;50.010;20.020;2023-06-10T17:24:23;6.78;;;6.07;;
28007;SDS011;15333;50.010;20.020;2023-06-10T17:27:24;8.50;;;5.95;;
28007;SDS011;15333;50.010;20.020;2023-06-10T17:30:25;7.93;;;5.90;;
28007;SDS011;15333;50.010;20.020;2023-06-10T17:33:26;6.70;;;6.00;;
28007;SDS011;15333;50.010;20.020;2023-06-10T17:36:27;7.70;;;6.20;;
28007;SDS011;15333;50.010;20.020;2023-06-10T17:39:28;7.80;;;5.90;;
28007;SDS011;15333;50.010;20.020;2023-06-10T17:42:30;7.72;;;6.70;;
28007;SDS011;15333;50.010;20.020;2023-06-10T17:45:30;7.93;;;6.32;;
28007;SDS011;15333;50.010;20.020;2023-06-10T17:48:32;7.18;;;6.22;;
28007;SDS011;15333;50.010;20.020;2023-06-10T17:51:33;8.70;;;6.63;;